sensor_id;sensor_type;location;lat;lon;timestamp;pressure;altitude;pressure_sealevel;temperature;humidity
62881;BME280;48969;49.934;8.596;2023-07-13T00:00:27;100458.44;;;22.93;52.65
62881;BME280;48969;49.934;8.596;2023-07-13T00:02:52;100459.63;;;22.91;52.21
62881;BME280;48969;49.934;8.596;2023-07-13T00:05:21;100465.88;;;22.91;52.88
62881;BME280;48969;49.934;8.596;2023-07-13T00:07:47;100464.38;;;22.89;52.74
62881;BME280;48969;49.934;8.596;2023-07-13T00:10:13;100466.72;;;22.92;52.84
62881;BME280;48969;49.934;8.596;2023-07-13T00:12:38;100468.41;;;22.93;53.36
62881;BME280;48969;49.934;8.596;2023-07-13T00:15:12;100468.09;;;22.88;53.08
62881;BME280;48969;49.934;8.596;2023-07-13T00:17:39;100480.94;;;22.86;54.01
62881;BME280;48969;49.934;8.596;2023-07-13T00:20:05;100476.38;;;22.86;53.58
62881;BME280;48969;49.934;8.596;2023-07-13T00:22:30;100476.38;;;22.86;53.50
62881;BME280;48969;49.934;8.596;2023-07-13T00:24:55;100478.25;;;22.77;53.59
62881;BME280;48969;49.934;8.596;2023-07-13T00:27:22;100478.97;;;22.39;53.59
62881;BME280;48969;49.934;8.596;2023-07-13T00:29:47;100473.56;;;22.47;53.59
62881;BME280;48969;49.934;8.596;2023-07-13T00:32:13;100472.72;;;22.54;53.24
62881;BME280;48969;49.934;8.596;2023-07-13T00:34:39;100467.31;;;22.54;53.04
62881;BME280;48969;49.934;8.596;2023-07-13T00:37:06;100471.19;;;22.52;52.88
62881;BME280;48969;49.934;8.596;2023-07-13T00:39:32;100478.63;;;22.50;52.91
62881;BME280;48969;49.934;8.596;2023-07-13T00:41:58;100473.38;;;22.57;52.65
62881;BME280;48969;49.934;8.596;2023-07-13T00:44:23;100466.63;;;22.61;51.52
62881;BME280;48969;49.934;8.596;2023-07-13T00:46:49;100474.03;;;22.67;51.67
62881;BME280;48969;49.934;8.596;2023-07-13T00:49:22;100469.81;;;22.64;51.76
62881;BME280;48969;49.934;8.596;2023-07-13T00:51:54;100477.75;;;22.58;51.40
62881;BME280;48969;49.934;8.596;2023-07-13T00:54:24;100473.38;;;22.57;51.54
62881;BME280;48969;49.934;8.596;2023-07-13T00:56:53;100503.13;;;22.32;54.40
62881;BME280;48969;49.934;8.596;2023-07-13T00:59:21;100524.84;;;22.06;58.34
62881;BME280;48969;49.934;8.596;2023-07-13T01:01:47;100507.97;;;22.20;56.07
62881;BME280;48969;49.934;8.596;2023-07-13T01:04:13;100490.47;;;22.24;54.75
62881;BME280;48969;49.934;8.596;2023-07-13T01:06:39;100478.31;;;22.28;53.62
62881;BME280;48969;49.934;8.596;2023-07-13T01:09:07;100506.66;;;22.24;57.23
62881;BME280;48969;49.934;8.596;2023-07-13T01:11:33;100493.84;;;22.26;55.13
62881;BME280;48969;49.934;8.596;2023-07-13T01:13:58;100489.94;;;22.29;55.40
62881;BME280;48969;49.934;8.596;2023-07-13T01:16:28;100484.00;;;22.17;54.47
62881;BME280;48969;49.934;8.596;2023-07-13T01:18:55;100487.03;;;22.14;54.58
62881;BME280;48969;49.934;8.596;2023-07-13T01:21:24;100488.72;;;22.15;54.86
62881;BME280;48969;49.934;8.596;2023-07-13T01:23:50;100491.44;;;22.15;55.31
62881;BME280;48969;49.934;8.596;2023-07-13T01:26:15;100491.75;;;22.20;55.82
62881;BME280;48969;49.934;8.596;2023-07-13T01:28:41;100496.97;;;22.05;56.11
62881;BME280;48969;49.934;8.596;2023-07-13T01:31:06;100503.56;;;22.11;56.85
62881;BME280;48969;49.934;8.596;2023-07-13T01:33:31;100507.06;;;21.87;55.99
62881;BME280;48969;49.934;8.596;2023-07-13T01:35:57;100511.28;;;21.81;57.76
62881;BME280;48969;49.934;8.596;2023-07-13T01:38:23;100491.25;;;21.92;56.31
62881;BME280;48969;49.934;8.596;2023-07-13T01:40:49;100493.44;;;21.97;56.64
62881;BME280;48969;49.934;8.596;2023-07-13T01:43:14;100490.41;;;22.00;56.51
62881;BME280;48969;49.934;8.596;2023-07-13T01:45:40;100497.81;;;21.98;57.16
62881;BME280;48969;49.934;8.596;2023-07-13T01:48:05;100509.63;;;21.97;57.19
62881;BME280;48969;49.934;8.596;2023-07-13T01:50:32;100504.25;;;21.97;57.51
62881;BME280;48969;49.934;8.596;2023-07-13T01:52:57;100512.84;;;21.92;58.15
62881;BME280;48969;49.934;8.596;2023-07-13T01:55:22;100531.13;;;21.64;60.08
62881;BME280;48969;49.934;8.596;2023-07-13T01:57:48;100517.81;;;21.62;59.44
62881;BME280;48969;49.934;8.596;2023-07-13T02:00:14;100520.88;;;21.67;59.46
62881;BME280;48969;49.934;8.596;2023-07-13T02:02:39;100527.44;;;21.65;58.82
62881;BME280;48969;49.934;8.596;2023-07-13T02:05:05;100529.31;;;21.72;59.06
62881;BME280;48969;49.934;8.596;2023-07-13T02:07:31;100530.66;;;21.77;59.81
62881;BME280;48969;49.934;8.596;2023-07-13T02:09:57;100527.47;;;21.81;59.49
62881;BME280;48969;49.934;8.596;2023-07-13T02:12:22;100524.09;;;21.79;58.91
62881;BME280;48969;49.934;8.596;2023-07-13T02:14:47;100528.66;;;21.79;59.58
62881;BME280;48969;49.934;8.596;2023-07-13T02:17:13;100534.00;;;21.62;59.75
62881;BME280;48969;49.934;8.596;2023-07-13T02:19:38;100539.41;;;21.62;60.08
62881;BME280;48969;49.934;8.596;2023-07-13T02:22:04;100539.22;;;21.29;61.14
62881;BME280;48969;49.934;8.596;2023-07-13T02:24:29;100535.94;;;21.44;60.20
62881;BME280;48969;49.934;8.596;2023-07-13T02:26:54;100539.84;;;21.49;60.69
62881;BME280;48969;49.934;8.596;2023-07-13T02:29:19;100536.63;;;21.20;60.47
62881;BME280;48969;49.934;8.596;2023-07-13T02:31:45;100551.50;;;21.24;61.30
62881;BME280;48969;49.934;8.596;2023-07-13T02:34:10;100539.69;;;21.25;60.91
62881;BME280;48969;49.934;8.596;2023-07-13T02:36:35;100542.25;;;21.35;60.29
62881;BME280;48969;49.934;8.596;2023-07-13T02:39:02;100531.13;;;21.29;58.12
62881;BME280;48969;49.934;8.596;2023-07-13T02:41:28;100527.59;;;21.29;57.68
62881;BME280;48969;49.934;8.596;2023-07-13T02:43:54;100519.81;;;21.26;56.80
62881;BME280;48969;49.934;8.596;2023-07-13T02:46:19;100528.53;;;21.20;56.69
62881;BME280;48969;49.934;8.596;2023-07-13T02:48:45;100537.84;;;21.25;56.62
62881;BME280;48969;49.934;8.596;2023-07-13T02:51:11;100539.19;;;21.21;56.76
62881;BME280;48969;49.934;8.596;2023-07-13T02:53:36;100546.94;;;21.24;57.17
62881;BME280;48969;49.934;8.596;2023-07-13T02:56:02;100545.56;;;21.20;56.76
62881;BME280;48969;49.934;8.596;2023-07-13T02:58:27;100532.91;;;21.13;56.11
62881;BME280;48969;49.934;8.596;2023-07-13T03:00:52;100533.72;;;21.13;55.88
62881;BME280;48969;49.934;8.596;2023-07-13T03:03:18;100529.72;;;21.17;55.94
62881;BME280;48969;49.934;8.596;2023-07-13T03:05:44;100543.00;;;21.10;55.90
62881;BME280;48969;49.934;8.596;2023-07-13T03:08:11;100555.31;;;21.13;57.07
62881;BME280;48969;49.934;8.596;2023-07-13T03:10:36;100557.84;;;21.15;57.67
62881;BME280;48969;49.934;8.596;2023-07-13T03:13:02;100551.59;;;21.14;56.53
62881;BME280;48969;49.934;8.596;2023-07-13T03:15:28;100558.00;;;21.13;56.55
62881;BME280;48969;49.934;8.596;2023-07-13T03:17:53;100553.81;;;21.19;57.33
62881;BME280;48969;49.934;8.596;2023-07-13T03:20:18;100540.41;;;21.01;56.04
62881;BME280;48969;49.934;8.596;2023-07-13T03:22:44;100558.47;;;20.82;57.00
62881;BME280;48969;49.934;8.596;2023-07-13T03:25:09;100562.50;;;21.04;56.82
62881;BME280;48969;49.934;8.596;2023-07-13T03:27:36;100561.72;;;21.12;56.54
62881;BME280;48969;49.934;8.596;2023-07-13T03:30:01;100563.75;;;21.18;56.23
62881;BME280;48969;49.934;8.596;2023-07-13T03:32:26;100562.91;;;21.18;56.94
62881;BME280;48969;49.934;8.596;2023-07-13T03:34:51;100575.50;;;20.83;57.69
62881;BME280;48969;49.934;8.596;2023-07-13T03:37:17;100584.09;;;20.86;58.78
62881;BME280;48969;49.934;8.596;2023-07-13T03:39:42;100580.66;;;21.02;58.54
62881;BME280;48969;49.934;8.596;2023-07-13T03:42:07;100582.06;;;21.06;58.54
62881;BME280;48969;49.934;8.596;2023-07-13T03:44:35;100586.81;;;21.13;58.79
62881;BME280;48969;49.934;8.596;2023-07-13T03:47:00;100593.91;;;21.14;59.30
62881;BME280;48969;49.934;8.596;2023-07-13T03:49:26;100584.59;;;21.08;58.65
62881;BME280;48969;49.934;8.596;2023-07-13T03:51:51;100583.06;;;21.05;58.97
62881;BME280;48969;49.934;8.596;2023-07-13T03:54:16;100587.28;;;21.08;59.59
62881;BME280;48969;49.934;8.596;2023-07-13T03:56:41;100578.03;;;21.10;58.99
62881;BME280;48969;49.934;8.596;2023-07-13T03:59:07;100587.84;;;20.94;59.41
62881;BME280;48969;49.934;8.596;2023-07-13T04:01:34;100590.28;;;21.05;58.66
62881;BME280;48969;49.934;8.596;2023-07-13T04:03:59;100579.34;;;21.06;58.60
62881;BME280;48969;49.934;8.596;2023-07-13T04:06:29;100585.91;;;21.04;59.23
62881;BME280;48969;49.934;8.596;2023-07-13T04:08:59;100596.59;;;20.87;60.18
62881;BME280;48969;49.934;8.596;2023-07-13T04:11:27;100593.72;;;20.89;60.87
62881;BME280;48969;49.934;8.596;2023-07-13T04:13:53;100601.06;;;20.79;61.57
62881;BME280;48969;49.934;8.596;2023-07-13T04:16:19;100598.81;;;20.92;62.77
62881;BME280;48969;49.934;8.596;2023-07-13T04:18:46;100594.81;;;20.78;63.18
62881;BME280;48969;49.934;8.596;2023-07-13T04:21:12;100600.13;;;20.88;62.64
62881;BME280;48969;49.934;8.596;2023-07-13T04:23:38;100602.03;;;20.96;62.21
62881;BME280;48969;49.934;8.596;2023-07-13T04:26:03;100594.94;;;20.95;61.67
62881;BME280;48969;49.934;8.596;2023-07-13T04:28:28;100602.41;;;21.01;61.46
62881;BME280;48969;49.934;8.596;2023-07-13T04:30:54;100601.94;;;21.05;62.39
62881;BME280;48969;49.934;8.596;2023-07-13T04:33:20;100594.69;;;21.06;61.69
62881;BME280;48969;49.934;8.596;2023-07-13T04:35:50;100599.09;;;20.89;62.40
62881;BME280;48969;49.934;8.596;2023-07-13T04:38:21;100602.41;;;21.01;61.91
62881;BME280;48969;49.934;8.596;2023-07-13T04:40:47;100599.03;;;20.99;61.13
62881;BME280;48969;49.934;8.596;2023-07-13T04:43:12;100601.19;;;20.95;61.17
62881;BME280;48969;49.934;8.596;2023-07-13T04:45:37;100602.72;;;20.98;61.31
62881;BME280;48969;49.934;8.596;2023-07-13T04:48:03;100604.25;;;21.00;61.48
62881;BME280;48969;49.934;8.596;2023-07-13T04:50:28;100610.19;;;21.04;61.67
62881;BME280;48969;49.934;8.596;2023-07-13T04:52:54;100613.41;;;21.07;61.51
62881;BME280;48969;49.934;8.596;2023-07-13T04:55:19;100612.41;;;21.08;60.61
62881;BME280;48969;49.934;8.596;2023-07-13T04:57:45;100617.47;;;21.12;60.23
62881;BME280;48969;49.934;8.596;2023-07-13T05:00:12;100627.25;;;21.13;61.32
62881;BME280;48969;49.934;8.596;2023-07-13T05:02:38;100618.16;;;21.14;61.00
62881;BME280;48969;49.934;8.596;2023-07-13T05:05:05;100623.50;;;21.05;60.53
62881;BME280;48969;49.934;8.596;2023-07-13T05:07:30;100609.72;;;21.08;59.60
62881;BME280;48969;49.934;8.596;2023-07-13T05:09:58;100612.88;;;21.04;59.46
62881;BME280;48969;49.934;8.596;2023-07-13T05:12:23;100610.16;;;20.78;58.94
62881;BME280;48969;49.934;8.596;2023-07-13T05:14:49;100608.31;;;20.60;59.06
62881;BME280;48969;49.934;8.596;2023-07-13T05:17:14;100621.53;;;20.54;60.38
62881;BME280;48969;49.934;8.596;2023-07-13T05:19:40;100614.91;;;20.66;59.75
62881;BME280;48969;49.934;8.596;2023-07-13T05:22:05;100617.00;;;20.72;59.63
62881;BME280;48969;49.934;8.596;2023-07-13T05:24:30;100618.25;;;20.60;59.88
62881;BME280;48969;49.934;8.596;2023-07-13T05:26:55;100622.94;;;20.58;60.08
62881;BME280;48969;49.934;8.596;2023-07-13T05:29:21;100633.00;;;20.56;60.82
62881;BME280;48969;49.934;8.596;2023-07-13T05:31:47;100627.22;;;20.68;60.59
62881;BME280;48969;49.934;8.596;2023-07-13T05:34:13;100618.47;;;20.66;59.33
62881;BME280;48969;49.934;8.596;2023-07-13T05:36:38;100622.16;;;20.83;60.02
62881;BME280;48969;49.934;8.596;2023-07-13T05:39:04;100621.06;;;20.94;59.39
62881;BME280;48969;49.934;8.596;2023-07-13T05:41:29;100622.97;;;21.02;59.34
62881;BME280;48969;49.934;8.596;2023-07-13T05:43:54;100618.41;;;21.02;58.47
62881;BME280;48969;49.934;8.596;2023-07-13T05:46:20;100624.22;;;21.07;58.89
62881;BME280;48969;49.934;8.596;2023-07-13T05:48:45;100622.38;;;20.90;57.49
62881;BME280;48969;49.934;8.596;2023-07-13T05:51:11;100624.69;;;21.03;58.30
62881;BME280;48969;49.934;8.596;2023-07-13T05:53:36;100625.78;;;21.18;57.89
62881;BME280;48969;49.934;8.596;2023-07-13T05:56:02;100631.84;;;21.20;58.42
62881;BME280;48969;49.934;8.596;2023-07-13T05:58:27;100641.00;;;21.27;58.11
62881;BME280;48969;49.934;8.596;2023-07-13T06:01:04;100621.22;;;21.19;56.96
62881;BME280;48969;49.934;8.596;2023-07-13T06:03:30;100622.56;;;21.15;56.75
62881;BME280;48969;49.934;8.596;2023-07-13T06:05:55;100637.78;;;21.24;57.41
62881;BME280;48969;49.934;8.596;2023-07-13T06:08:21;100631.22;;;21.44;57.35
62881;BME280;48969;49.934;8.596;2023-07-13T06:10:46;100633.38;;;21.41;57.13
62881;BME280;48969;49.934;8.596;2023-07-13T06:13:11;100629.25;;;21.55;56.82
62881;BME280;48969;49.934;8.596;2023-07-13T06:15:37;100627.63;;;21.70;56.84
62881;BME280;48969;49.934;8.596;2023-07-13T06:18:02;100604.66;;;21.66;53.84
62881;BME280;48969;49.934;8.596;2023-07-13T06:20:28;100603.94;;;21.90;52.82
62881;BME280;48969;49.934;8.596;2023-07-13T06:22:54;100614.09;;;21.62;53.44
62881;BME280;48969;49.934;8.596;2023-07-13T06:25:19;100630.06;;;21.55;53.99
62881;BME280;48969;49.934;8.596;2023-07-13T06:27:44;100620.22;;;21.72;52.92
62881;BME280;48969;49.934;8.596;2023-07-13T06:30:10;100632.22;;;21.78;53.49
62881;BME280;48969;49.934;8.596;2023-07-13T06:32:36;100638.38;;;21.96;53.01
62881;BME280;48969;49.934;8.596;2023-07-13T06:35:01;100625.13;;;22.19;52.61
62881;BME280;48969;49.934;8.596;2023-07-13T06:37:26;100621.28;;;22.22;52.60
62881;BME280;48969;49.934;8.596;2023-07-13T06:39:51;100625.13;;;22.19;53.00
62881;BME280;48969;49.934;8.596;2023-07-13T06:42:17;100629.56;;;22.37;52.11
62881;BME280;48969;49.934;8.596;2023-07-13T06:44:42;100623.19;;;22.38;51.82
62881;BME280;48969;49.934;8.596;2023-07-13T06:47:07;100633.16;;;22.45;51.64
62881;BME280;48969;49.934;8.596;2023-07-13T06:49:33;100648.84;;;22.42;51.95
62881;BME280;48969;49.934;8.596;2023-07-13T06:51:58;100631.94;;;22.40;50.61
62881;BME280;48969;49.934;8.596;2023-07-13T06:54:23;100635.88;;;22.53;51.06
62881;BME280;48969;49.934;8.596;2023-07-13T06:56:49;100633.16;;;22.62;51.39
62881;BME280;48969;49.934;8.596;2023-07-13T06:59:14;100621.34;;;22.63;50.03
62881;BME280;48969;49.934;8.596;2023-07-13T07:01:39;100629.97;;;22.58;50.06
62881;BME280;48969;49.934;8.596;2023-07-13T07:04:05;100614.56;;;22.67;49.30
62881;BME280;48969;49.934;8.596;2023-07-13T07:06:30;100627.25;;;22.66;49.82
62881;BME280;48969;49.934;8.596;2023-07-13T07:08:55;100630.47;;;22.70;50.24
62881;BME280;48969;49.934;8.596;2023-07-13T07:11:25;100616.94;;;22.62;49.13
62881;BME280;48969;49.934;8.596;2023-07-13T07:13:51;100637.72;;;22.61;50.16
62881;BME280;48969;49.934;8.596;2023-07-13T07:16:17;100639.13;;;22.90;50.51
62881;BME280;48969;49.934;8.596;2023-07-13T07:18:43;100629.13;;;22.90;49.87
62881;BME280;48969;49.934;8.596;2023-07-13T07:21:09;100613.09;;;22.97;48.52
62881;BME280;48969;49.934;8.596;2023-07-13T07:23:34;100641.97;;;22.96;50.00
62881;BME280;48969;49.934;8.596;2023-07-13T07:25:59;100644.69;;;23.05;50.06
62881;BME280;48969;49.934;8.596;2023-07-13T07:28:25;100618.81;;;23.10;48.43
62881;BME280;48969;49.934;8.596;2023-07-13T07:30:53;100638.78;;;23.17;49.30
62881;BME280;48969;49.934;8.596;2023-07-13T07:33:18;100632.34;;;23.18;49.01
62881;BME280;48969;49.934;8.596;2023-07-13T07:35:44;100637.25;;;23.31;48.55
62881;BME280;48969;49.934;8.596;2023-07-13T07:38:09;100626.91;;;23.43;48.22
62881;BME280;48969;49.934;8.596;2023-07-13T07:40:38;100624.13;;;23.59;47.96
62881;BME280;48969;49.934;8.596;2023-07-13T07:43:05;100636.69;;;23.52;48.06
62881;BME280;48969;49.934;8.596;2023-07-13T07:45:30;100638.03;;;23.56;47.98
62881;BME280;48969;49.934;8.596;2023-07-13T07:47:55;100643.06;;;23.76;48.17
62881;BME280;48969;49.934;8.596;2023-07-13T07:50:24;100639.34;;;23.77;47.94
62881;BME280;48969;49.934;8.596;2023-07-13T07:52:49;100629.53;;;23.68;47.45
62881;BME280;48969;49.934;8.596;2023-07-13T07:55:15;100625.44;;;23.80;47.34
62881;BME280;48969;49.934;8.596;2023-07-13T07:57:40;100627.31;;;23.79;47.47
62881;BME280;48969;49.934;8.596;2023-07-13T08:00:06;100627.69;;;23.60;47.61
62881;BME280;48969;49.934;8.596;2023-07-13T08:02:31;100634.28;;;23.57;47.70
62881;BME280;48969;49.934;8.596;2023-07-13T08:04:56;100630.06;;;23.55;47.12
62881;BME280;48969;49.934;8.596;2023-07-13T08:07:22;100630.75;;;23.65;47.80
62881;BME280;48969;49.934;8.596;2023-07-13T08:09:47;100620.19;;;23.78;47.03
62881;BME280;48969;49.934;8.596;2023-07-13T08:12:12;100638.59;;;23.99;47.94
62881;BME280;48969;49.934;8.596;2023-07-13T08:14:38;100641.91;;;24.10;48.00
62881;BME280;48969;49.934;8.596;2023-07-13T08:17:03;100622.94;;;24.10;47.07
62881;BME280;48969;49.934;8.596;2023-07-13T08:19:29;100612.28;;;24.08;46.35
62881;BME280;48969;49.934;8.596;2023-07-13T08:21:55;100625.09;;;24.23;47.28
62881;BME280;48969;49.934;8.596;2023-07-13T08:24:22;100629.91;;;24.35;47.64
62881;BME280;48969;49.934;8.596;2023-07-13T08:26:48;100614.44;;;24.44;46.14
62881;BME280;48969;49.934;8.596;2023-07-13T08:29:13;100609.16;;;24.51;45.36
62881;BME280;48969;49.934;8.596;2023-07-13T08:31:38;100625.69;;;24.64;46.21
62881;BME280;48969;49.934;8.596;2023-07-13T08:34:04;100602.19;;;24.56;45.55
62881;BME280;48969;49.934;8.596;2023-07-13T08:36:29;100596.78;;;24.56;45.24
62881;BME280;48969;49.934;8.596;2023-07-13T08:38:54;100603.13;;;24.40;44.97
62881;BME280;48969;49.934;8.596;2023-07-13T08:41:20;100611.06;;;24.42;45.22
62881;BME280;48969;49.934;8.596;2023-07-13T08:43:50;100606.84;;;24.48;45.05
62881;BME280;48969;49.934;8.596;2023-07-13T08:46:26;100612.56;;;24.53;45.47
62881;BME280;48969;49.934;8.596;2023-07-13T08:48:58;100596.13;;;24.46;43.94
62881;BME280;48969;49.934;8.596;2023-07-13T08:51:41;100597.03;;;24.38;44.30
62881;BME280;48969;49.934;8.596;2023-07-13T08:56:48;100577.84;;;24.48;44.01
62881;BME280;48969;49.934;8.596;2023-07-13T08:59:20;100591.53;;;24.47;44.24
62881;BME280;48969;49.934;8.596;2023-07-13T09:04:46;100596.66;;;24.41;43.80
62881;BME280;48969;49.934;8.596;2023-07-13T09:10:15;100582.59;;;24.69;43.22
62881;BME280;48969;49.934;8.596;2023-07-13T09:13:04;100559.97;;;24.62;42.15
62881;BME280;48969;49.934;8.596;2023-07-13T09:15:38;100587.56;;;24.66;42.88
62881;BME280;48969;49.934;8.596;2023-07-13T09:18:26;100558.84;;;24.71;41.74
62881;BME280;48969;49.934;8.596;2023-07-13T09:21:54;100555.44;;;24.92;41.77
62881;BME280;48969;49.934;8.596;2023-07-13T09:23:52;100557.41;;;25.13;41.70
62881;BME280;48969;49.934;8.596;2023-07-13T09:26:20;100558.34;;;25.05;41.51
62881;BME280;48969;49.934;8.596;2023-07-13T09:28:49;100570.03;;;24.91;42.51
62881;BME280;48969;49.934;8.596;2023-07-13T09:31:33;100579.38;;;24.89;42.72
62881;BME280;48969;49.934;8.596;2023-07-13T09:34:00;100570.16;;;24.98;41.86
62881;BME280;48969;49.934;8.596;2023-07-13T09:36:29;100565.50;;;25.07;41.79
62881;BME280;48969;49.934;8.596;2023-07-13T09:44:36;100553.81;;;25.36;41.27
62881;BME280;48969;49.934;8.596;2023-07-13T09:47:03;100557.00;;;25.39;41.49
62881;BME280;48969;49.934;8.596;2023-07-13T09:49:35;100576.00;;;25.54;41.39
62881;BME280;48969;49.934;8.596;2023-07-13T09:52:03;100558.31;;;25.43;41.11
62881;BME280;48969;49.934;8.596;2023-07-13T09:54:34;100553.47;;;25.39;40.85
62881;BME280;48969;49.934;8.596;2023-07-13T09:57:01;100554.13;;;25.41;40.55
62881;BME280;48969;49.934;8.596;2023-07-13T09:59:30;100548.22;;;25.52;40.38
62881;BME280;48969;49.934;8.596;2023-07-13T10:01:56;100567.94;;;25.61;41.15
62881;BME280;48969;49.934;8.596;2023-07-13T10:04:33;100578.31;;;25.72;41.45
62881;BME280;48969;49.934;8.596;2023-07-13T10:07:07;100528.78;;;25.70;39.07
62881;BME280;48969;49.934;8.596;2023-07-13T10:09:33;100531.47;;;25.85;38.94
62881;BME280;48969;49.934;8.596;2023-07-13T10:11:58;100547.59;;;25.72;39.40
62881;BME280;48969;49.934;8.596;2023-07-13T10:14:23;100545.84;;;25.64;39.70
62881;BME280;48969;49.934;8.596;2023-07-13T10:16:55;100542.84;;;25.59;39.85
62881;BME280;48969;49.934;8.596;2023-07-13T10:19:25;100536.69;;;25.50;39.62
62881;BME280;48969;49.934;8.596;2023-07-13T10:22:00;100540.16;;;25.44;39.97
62881;BME280;48969;49.934;8.596;2023-07-13T10:24:33;100557.19;;;25.38;40.47
62881;BME280;48969;49.934;8.596;2023-07-13T10:27:15;100526.06;;;25.70;39.24
62881;BME280;48969;49.934;8.596;2023-07-13T10:29:48;100537.22;;;25.75;39.67
62881;BME280;48969;49.934;8.596;2023-07-13T10:32:19;100517.56;;;25.73;39.05
62881;BME280;48969;49.934;8.596;2023-07-13T10:34:47;100521.78;;;25.61;38.89
62881;BME280;48969;49.934;8.596;2023-07-13T10:37:19;100524.47;;;25.76;39.56
62881;BME280;48969;49.934;8.596;2023-07-13T10:39:47;100507.56;;;25.95;38.34
62881;BME280;48969;49.934;8.596;2023-07-13T10:42:25;100518.28;;;25.82;38.23
62881;BME280;48969;49.934;8.596;2023-07-13T10:44:52;100509.31;;;25.66;38.00
62881;BME280;48969;49.934;8.596;2023-07-13T10:47:18;100504.06;;;25.65;37.78
62881;BME280;48969;49.934;8.596;2023-07-13T10:49:43;100490.25;;;25.81;37.83
62881;BME280;48969;49.934;8.596;2023-07-13T10:52:52;100507.94;;;26.07;37.51
62881;BME280;48969;49.934;8.596;2023-07-13T10:55:38;100515.31;;;26.35;38.02
62881;BME280;48969;49.934;8.596;2023-07-13T10:58:13;100527.06;;;26.42;38.73
62881;BME280;48969;49.934;8.596;2023-07-13T11:01:06;100511.75;;;26.56;38.22
62881;BME280;48969;49.934;8.596;2023-07-13T11:03:34;100526.19;;;26.84;38.56
62881;BME280;48969;49.934;8.596;2023-07-13T11:06:16;100483.72;;;26.83;36.81
62881;BME280;48969;49.934;8.596;2023-07-13T11:11:35;100479.38;;;26.96;36.37
62881;BME280;48969;49.934;8.596;2023-07-13T11:14:03;100544.75;;;27.30;35.08
62881;BME280;48969;49.934;8.596;2023-07-13T11:16:41;100581.28;;;27.91;35.11
62881;BME280;48969;49.934;8.596;2023-07-13T11:21:33;100570.19;;;27.92;33.44
62881;BME280;48969;49.934;8.596;2023-07-13T11:26:43;100568.09;;;27.46;34.18
62881;BME280;48969;49.934;8.596;2023-07-13T11:32:01;100584.31;;;27.05;35.99
62881;BME280;48969;49.934;8.596;2023-07-13T11:34:45;100582.44;;;27.05;36.40
62881;BME280;48969;49.934;8.596;2023-07-13T11:37:14;100588.78;;;27.12;36.40
62881;BME280;48969;49.934;8.596;2023-07-13T11:39:42;100582.63;;;27.04;36.09
62881;BME280;48969;49.934;8.596;2023-07-13T11:42:12;100572.88;;;26.88;35.71
62881;BME280;48969;49.934;8.596;2023-07-13T11:44:43;100579.75;;;26.84;36.45
62881;BME280;48969;49.934;8.596;2023-07-13T11:47:11;100591.94;;;26.88;37.36
62881;BME280;48969;49.934;8.596;2023-07-13T11:49:52;100581.72;;;26.68;36.77
62881;BME280;48969;49.934;8.596;2023-07-13T11:52:35;100595.75;;;26.50;38.19
62881;BME280;48969;49.934;8.596;2023-07-13T11:55:04;100601.31;;;26.57;37.79
62881;BME280;48969;49.934;8.596;2023-07-13T11:57:43;100598.53;;;26.36;37.88
62881;BME280;48969;49.934;8.596;2023-07-13T12:00:16;100598.28;;;26.31;37.76
62881;BME280;48969;49.934;8.596;2023-07-13T12:02:48;100608.59;;;26.20;39.02
62881;BME280;48969;49.934;8.596;2023-07-13T12:05:17;100600.94;;;26.09;38.45
62881;BME280;48969;49.934;8.596;2023-07-13T12:07:43;100585.81;;;25.85;37.54
62881;BME280;48969;49.934;8.596;2023-07-13T12:12:35;100604.06;;;26.06;38.99
62881;BME280;48969;49.934;8.596;2023-07-13T12:15:06;100600.50;;;26.05;38.20
62881;BME280;48969;49.934;8.596;2023-07-13T12:17:31;100584.47;;;26.11;37.74
62881;BME280;48969;49.934;8.596;2023-07-13T12:19:59;100616.97;;;26.19;39.51
62881;BME280;48969;49.934;8.596;2023-07-13T12:22:25;100595.66;;;26.22;38.33
62881;BME280;48969;49.934;8.596;2023-07-13T12:24:51;100592.09;;;26.22;37.98
62881;BME280;48969;49.934;8.596;2023-07-13T12:30:01;100605.19;;;26.33;38.02
62881;BME280;48969;49.934;8.596;2023-07-13T12:32:27;100603.81;;;26.22;38.25
62881;BME280;48969;49.934;8.596;2023-07-13T12:34:54;100591.28;;;26.21;37.72
62881;BME280;48969;49.934;8.596;2023-07-13T12:37:20;100592.09;;;26.22;37.59
62881;BME280;48969;49.934;8.596;2023-07-13T12:39:47;100606.94;;;26.19;38.29
62881;BME280;48969;49.934;8.596;2023-07-13T12:42:32;100604.69;;;26.23;37.82
62881;BME280;48969;49.934;8.596;2023-07-13T12:45:10;100612.03;;;26.07;38.33
62881;BME280;48969;49.934;8.596;2023-07-13T12:47:43;100613.78;;;26.15;38.54
62881;BME280;48969;49.934;8.596;2023-07-13T12:50:15;100618.38;;;26.15;38.45
62881;BME280;48969;49.934;8.596;2023-07-13T12:52:43;100621.84;;;26.08;38.58
62881;BME280;48969;49.934;8.596;2023-07-13T12:55:17;100614.41;;;25.96;38.28
62881;BME280;48969;49.934;8.596;2023-07-13T12:57:54;100627.75;;;25.97;39.45
62881;BME280;48969;49.934;8.596;2023-07-13T13:00:27;100607.44;;;26.08;38.13
62881;BME280;48969;49.934;8.596;2023-07-13T13:02:56;100627.41;;;26.00;38.90
62881;BME280;48969;49.934;8.596;2023-07-13T13:05:22;100618.13;;;25.95;38.21
62881;BME280;48969;49.934;8.596;2023-07-13T13:07:50;100637.81;;;25.97;39.34
62881;BME280;48969;49.934;8.596;2023-07-13T13:10:15;100626.09;;;25.96;38.62
62881;BME280;48969;49.934;8.596;2023-07-13T13:12:41;100619.75;;;25.89;38.59
62881;BME280;48969;49.934;8.596;2023-07-13T13:15:08;100642.31;;;25.90;39.72
62881;BME280;48969;49.934;8.596;2023-07-13T13:17:34;100630.00;;;25.79;39.09
62881;BME280;48969;49.934;8.596;2023-07-13T13:19:59;100639.00;;;25.79;39.55
62881;BME280;48969;49.934;8.596;2023-07-13T13:22:25;100634.81;;;25.92;39.46